Item Display Status Humidity-temperature Sensor

Elevation Above Sea Level: 3 m

 

Deployed Sensor

  • Serial Number: 20593482
  • NDBC Property Number: 45527
  • Start Date: 1/10/2023 (09:54:30 Z)
  • End Date: Currently Active
Relative Humidity [%]     6 entries per hour
Showing data from 3/4/2024 (04:00:00 Z) to 3/3/2024 (00:00:01 Z)
Previous Next [ Day | 3-Days | 7-Days ]
First Last
Prev [ Day | 3-Days | 7-Days ] Next
First Last

Start Time:     :
End Time:     :     
Time (in GMT) :00 :50 :40 :30 :20 :10
Previous Next [ Day | 3-Days | 7-Days ]
First Last
Prev [ Day | 3-Days | 7-Days ] Next
First Last


123 => good data
MM => data is determined as missing
-- => data not received/configured
Back to Top Back to Top
3/4/2024 04:00 to 3:10 85.05 84.23 84.17 84.47 84.67 84.51
3/4/2024 03:00 to 2:10 84.41 84.59 84.13 83.95 83.55 84.27
3/4/2024 02:00 to 1:10 83.45 83.61 83.59 83.53 83.65 83.71
3/4/2024 01:00 to 0:10 83.43 82.55 82.01 81.09 80.14 79.94
3/4/2024 00:00 to 23:10 79.24 78.56 78.66 79.32 80.00 80.42
3/3/2024 23:00 to 22:10 80.80 81.19 81.39 81.27 80.90 81.31
3/3/2024 22:00 to 21:10 80.98 81.59 81.55 80.58 81.11 81.55
3/3/2024 21:00 to 20:10 81.19 81.41 82.75 83.91 84.59 85.27
3/3/2024 20:00 to 19:10 85.65 85.71 85.69 86.13 85.97 85.83
3/3/2024 19:00 to 18:10 85.59 85.29 84.95 84.57 84.81 85.13
3/3/2024 18:00 to 17:10 85.73 85.93 85.97 86.21 86.60 86.90
3/3/2024 17:00 to 16:10 86.64 86.74 86.62 86.46 85.71 84.87
3/3/2024 16:00 to 15:10 85.61 85.99 85.93 84.77 84.29 84.25
3/3/2024 15:00 to 14:10 83.33 83.13 82.27 82.83 83.07 83.79
3/3/2024 14:00 to 13:10 82.91 83.85 86.03 85.91 85.89 85.95
3/3/2024 13:00 to 12:10 86.28 86.11 86.26 86.78 87.12 87.54
3/3/2024 12:00 to 11:10 87.74 87.58 87.44 87.34 87.46 87.70
3/3/2024 11:00 to 10:10 87.50 87.52 87.38 87.18 86.40 86.11
3/3/2024 10:00 to 9:10 86.13 85.99 86.24 86.42 86.36 85.97
3/3/2024 09:00 to 8:10 86.24 86.60 86.94 87.28 87.38 87.00
3/3/2024 08:00 to 7:10 86.94 86.86 86.70 86.62 86.34 86.26
3/3/2024 07:00 to 6:10 86.21 86.13 86.21 86.28 86.48 86.38
3/3/2024 06:00 to 5:10 86.09 86.24 86.34 86.21 86.38 85.79
3/3/2024 05:00 to 4:10 86.36 86.11 85.37 85.03 83.75 83.33
3/3/2024 04:00 to 3:10 83.75 83.93 83.95 83.71 83.29 83.07
3/3/2024 03:00 to 2:10 82.87 82.05 81.29 82.17 82.89 82.45
3/3/2024 02:00 to 1:10 82.53 82.61 82.15 83.99 84.17 84.19
3/3/2024 01:00 to 0:10 83.47 83.09 82.57 82.91 83.03 82.95

 

 

 

Air Temperature [°C]     6 entries per hour
Showing data from 3/4/2024 (04:00:00 Z) to 3/3/2024 (00:00:01 Z)
Previous Next [ Day | 3-Days | 7-Days ]
First Last
Prev [ Day | 3-Days | 7-Days ] Next
First Last

Start Time:     :
End Time:     :     
Time (in GMT) :00 :50 :40 :30 :20 :10
Previous Next [ Day | 3-Days | 7-Days ]
First Last
Prev [ Day | 3-Days | 7-Days ] Next
First Last


123 => good data
MM => data is determined as missing
-- => data not received/configured
Back to Top Back to Top
3/4/2024 04:00 to 3:10 26.77 26.76 26.63 26.71 26.71 26.80
3/4/2024 03:00 to 2:10 26.71 26.74 26.73 26.77 26.65 26.75
3/4/2024 02:00 to 1:10 26.69 26.75 26.64 26.76 26.68 26.78
3/4/2024 01:00 to 0:10 26.79 26.75 26.91 26.94 26.95 27.23
3/4/2024 00:00 to 23:10 27.37 27.31 27.42 27.20 27.17 27.15
3/3/2024 23:00 to 22:10 27.20 27.17 27.20 27.09 27.20 26.96
3/3/2024 22:00 to 21:10 27.00 27.03 26.89 26.86 26.84 26.95
3/3/2024 21:00 to 20:10 26.79 26.85 26.80 26.60 26.73 26.69
3/3/2024 20:00 to 19:10 26.67 26.61 26.54 26.43 26.59 26.53
3/3/2024 19:00 to 18:10 26.46 26.51 26.52 26.51 26.60 26.63
3/3/2024 18:00 to 17:10 26.51 26.54 26.56 26.78 26.39 26.45
3/3/2024 17:00 to 16:10 26.49 26.47 26.43 26.38 26.46 26.66
3/3/2024 16:00 to 15:10 26.49 26.48 26.57 26.80 26.65 26.71
3/3/2024 15:00 to 14:10 27.00 26.82 27.04 26.98 27.01 26.76
3/3/2024 14:00 to 13:10 27.08 26.84 26.32 26.29 26.16 26.08
3/3/2024 13:00 to 12:10 26.11 26.05 26.05 25.97 25.97 25.97
3/3/2024 12:00 to 11:10 25.90 26.05 26.10 25.98 26.02 26.10
3/3/2024 11:00 to 10:10 26.00 26.05 26.13 26.23 26.19 26.19
3/3/2024 10:00 to 9:10 26.25 26.24 26.23 26.16 26.19 26.23
3/3/2024 09:00 to 8:10 26.13 26.31 26.20 26.25 26.33 26.33
3/3/2024 08:00 to 7:10 26.29 26.34 26.33 26.41 26.45 26.44
3/3/2024 07:00 to 6:10 26.50 26.56 26.51 26.59 26.54 26.64
3/3/2024 06:00 to 5:10 26.68 26.51 26.65 26.68 26.77 26.73
3/3/2024 05:00 to 4:10 26.72 26.71 26.92 26.91 26.94 27.08
3/3/2024 04:00 to 3:10 26.92 26.96 26.97 26.93 27.01 27.00
3/3/2024 03:00 to 2:10 27.05 27.13 27.14 27.06 27.01 27.05
3/3/2024 02:00 to 1:10 27.02 27.11 27.08 27.00 26.97 26.96
3/3/2024 01:00 to 0:10 26.97 26.86 26.83 27.01 26.88 26.99